Melrose, Montana
Current Conditions -  °F | °C
As of 5:53 AM on Tuesday 21 Oct 2014 (Local Time) from KBTM Reporting Station
Broken Clouds Broken Clouds  
Wind Chill: 47°   Ceiling: 11000
Heat Index: 47°   Visibility: 10mi
Dew Point: 34°   Wind: 0mph
Humidity: 61%   Direction: NA
Pressure: 29.78"   Gusts: NA
Location:  45.63°N, 112.69°W
Report Text: KBTM 211153Z AUTO 00000KT 10SM BKN110 08/01 A2978 RMK AO2 SLP042 T00830011 10122 20072 56012
Loading
Personal Weather Stations






























Interactive Weather Map
Tropical Storm Tracking
New forecast layout! Learn more

10-Day Weather Forecast

Advertisements
Track Severe Weather on mobile